createdAt,value
2023-06-26T00:00:33.921Z,61.87
2023-06-26T00:01:35.787Z,61.56
2023-06-26T00:02:37.551Z,61.96
2023-06-26T00:03:41.767Z,62.04
2023-06-26T00:04:44.731Z,61.98
2023-06-26T00:05:46.470Z,62.34
2023-06-26T00:06:48.249Z,62.11
2023-06-26T00:07:50.096Z,62.33
2023-06-26T00:08:52.264Z,62.10
2023-06-26T00:09:54.019Z,61.83
2023-06-26T00:10:55.963Z,61.93
2023-06-26T00:11:57.715Z,62.05
2023-06-26T00:12:59.500Z,62.16
2023-06-26T00:14:02.489Z,61.77
2023-06-26T00:15:04.560Z,61.58
2023-06-26T00:16:06.382Z,62.05
2023-06-26T00:17:08.206Z,61.95
2023-06-26T00:18:09.942Z,61.75
2023-06-26T00:19:11.685Z,61.79
2023-06-26T00:20:13.524Z,61.95
2023-06-26T00:21:15.403Z,61.80
2023-06-26T00:22:17.210Z,61.89
2023-06-26T00:23:19.628Z,61.73
2023-06-26T00:24:21.428Z,61.80
2023-06-26T00:25:23.203Z,61.93
2023-06-26T00:26:25.600Z,61.79
2023-06-26T00:27:27.410Z,61.62
2023-06-26T00:28:29.147Z,61.61
2023-06-26T00:29:30.892Z,61.53
2023-06-26T00:30:32.697Z,61.82
2023-06-26T00:31:36.279Z,61.70
2023-06-26T00:32:38.101Z,61.54
2023-06-26T00:33:40.769Z,61.59
2023-06-26T00:34:42.556Z,61.69
2023-06-26T00:35:44.282Z,61.64
2023-06-26T00:36:46.264Z,61.56
2023-06-26T00:37:48.100Z,61.79
2023-06-26T00:38:51.015Z,61.77
2023-06-26T00:39:52.804Z,61.71
2023-06-26T00:40:56.721Z,61.84
2023-06-26T00:41:58.542Z,61.73
2023-06-26T00:43:00.279Z,62.21
2023-06-26T00:44:02.053Z,61.81
2023-06-26T00:45:04.702Z,62.03
2023-06-26T00:46:09.541Z,61.90
2023-06-26T00:47:16.946Z,61.89
2023-06-26T00:48:19.542Z,62.16
2023-06-26T00:49:21.423Z,62.05
2023-06-26T00:50:23.994Z,62.02
2023-06-26T00:51:26.667Z,62.17
2023-06-26T00:52:28.490Z,62.37
2023-06-26T00:53:31.298Z,62.41
2023-06-26T00:54:33.624Z,62.47
2023-06-26T00:55:35.458Z,62.62
2023-06-26T00:56:38.190Z,62.54
2023-06-26T00:57:40.209Z,62.91
2023-06-26T00:58:41.983Z,62.74
2023-06-26T00:59:43.777Z,62.58
2023-06-26T01:00:46.863Z,62.92
2023-06-26T01:01:49.559Z,63.09
2023-06-26T01:02:51.566Z,63.13
2023-06-26T01:03:54.623Z,62.77
2023-06-26T01:04:56.455Z,63.07
2023-06-26T01:06:00.417Z,63.11
2023-06-26T01:07:04.647Z,62.99
2023-06-26T01:08:06.561Z,63.01
2023-06-26T01:09:08.402Z,63.05
2023-06-26T01:10:10.443Z,62.95
2023-06-26T01:11:13.472Z,63.08
2023-06-26T01:12:15.879Z,63.02
2023-06-26T01:13:18.491Z,62.93
2023-06-26T01:14:20.420Z,62.79
2023-06-26T01:15:22.237Z,62.68
2023-06-26T01:16:25.831Z,63.03
2023-06-26T01:17:33.683Z,62.98
2023-06-26T01:18:38.767Z,62.85
2023-06-26T01:19:41.574Z,63.09
2023-06-26T01:20:44.176Z,63.09
2023-06-26T01:21:47.844Z,63.36
2023-06-26T01:23:13.455Z,63.15
2023-06-26T01:24:22.373Z,63.31
2023-06-26T01:25:40.248Z,63.18
2023-06-26T01:26:45.439Z,63.37
2023-06-26T01:27:49.794Z,63.40
2023-06-26T01:28:54.193Z,63.42
2023-06-26T01:29:56.676Z,63.44
2023-06-26T01:31:00.130Z,63.34
2023-06-26T01:32:02.329Z,63.23
2023-06-26T01:33:05.001Z,63.70
2023-06-26T01:34:07.464Z,63.45
2023-06-26T01:35:11.164Z,63.24
2023-06-26T01:36:13.517Z,63.47
2023-06-26T01:37:15.272Z,63.61
2023-06-26T01:38:19.775Z,63.85
2023-06-26T01:39:21.693Z,63.72
2023-06-26T01:40:23.449Z,63.71
2023-06-26T01:41:25.536Z,63.62
2023-06-26T01:42:28.117Z,63.51
2023-06-26T01:44:15.157Z,63.64
2023-06-26T01:45:28.323Z,63.91
2023-06-26T01:47:02.973Z,63.64
2023-06-26T01:48:09.349Z,63.93
2023-06-26T01:49:22.910Z,63.69
2023-06-26T01:50:30.164Z,63.97
2023-06-26T01:51:36.875Z,64.05
2023-06-26T01:52:54.974Z,64.17
2023-06-26T01:53:59.767Z,64.36
2023-06-26T01:55:19.856Z,64.37
2023-06-26T01:56:24.822Z,64.47
2023-06-26T01:57:29.493Z,64.31
2023-06-26T01:58:33.272Z,64.07
2023-06-26T01:59:35.686Z,64.36
2023-06-26T02:00:38.952Z,64.38
2023-06-26T02:01:41.375Z,64.26
2023-06-26T02:02:44.055Z,64.52
2023-06-26T02:03:46.022Z,64.64
2023-06-26T02:04:49.459Z,64.42
2023-06-26T02:05:52.397Z,64.54
2023-06-26T02:06:54.249Z,64.33
2023-06-26T02:07:56.065Z,64.43
2023-06-26T02:08:57.860Z,64.66
2023-06-26T02:09:59.638Z,64.60
2023-06-26T02:11:01.456Z,64.70
2023-06-26T02:12:03.238Z,64.76
2023-06-26T02:13:05.049Z,64.90
2023-06-26T02:14:06.860Z,64.80
2023-06-26T02:15:09.532Z,64.96
2023-06-26T02:16:11.273Z,65.00
2023-06-26T02:17:13.081Z,64.83
2023-06-26T02:18:14.922Z,65.30
2023-06-26T02:19:22.734Z,65.21
2023-06-26T02:20:24.575Z,65.38
2023-06-26T02:21:26.360Z,65.40
2023-06-26T02:22:29.806Z,65.32
2023-06-26T02:23:31.804Z,65.24
2023-06-26T02:24:33.692Z,65.23
2023-06-26T02:25:35.438Z,65.20
2023-06-26T02:26:37.293Z,65.11
2023-06-26T02:27:39.529Z,65.29
2023-06-26T02:28:41.397Z,65.43
2023-06-26T02:29:43.302Z,65.04
2023-06-26T02:30:45.203Z,65.14
2023-06-26T02:31:47.034Z,65.16
2023-06-26T02:32:48.902Z,65.00
2023-06-26T02:33:50.852Z,65.15
2023-06-26T02:34:55.194Z,65.02
2023-06-26T02:35:57.016Z,65.37
2023-06-26T02:36:59.745Z,65.58
2023-06-26T02:38:01.495Z,65.25
2023-06-26T02:39:03.433Z,65.54
2023-06-26T02:40:06.263Z,65.20
2023-06-26T02:41:08.040Z,65.15
2023-06-26T02:42:09.782Z,65.26
2023-06-26T02:43:11.541Z,65.49
2023-06-26T02:44:13.616Z,65.16
2023-06-26T02:45:15.534Z,65.23
2023-06-26T02:46:17.394Z,65.24
2023-06-26T02:47:19.251Z,65.03
2023-06-26T02:48:21.052Z,65.07
2023-06-26T02:49:23.674Z,65.18
2023-06-26T02:50:25.668Z,65.38
2023-06-26T02:51:27.482Z,65.25
2023-06-26T02:52:29.900Z,65.08
2023-06-26T02:53:32.581Z,65.22
2023-06-26T02:54:34.359Z,64.91
2023-06-26T02:55:36.177Z,64.97
2023-06-26T02:56:44.878Z,64.80
2023-06-26T02:57:49.351Z,64.83
2023-06-26T02:58:51.154Z,64.95
2023-06-26T02:59:52.895Z,64.83
2023-06-26T03:00:54.861Z,64.94
2023-06-26T03:01:56.717Z,65.18
2023-06-26T03:02:58.584Z,64.55
2023-06-26T03:04:01.861Z,64.79
2023-06-26T03:05:04.201Z,64.71
2023-06-26T03:06:05.950Z,64.70
2023-06-26T03:07:07.775Z,64.70
2023-06-26T03:08:09.531Z,64.85
2023-06-26T03:09:11.288Z,64.91
2023-06-26T03:10:13.044Z,64.74
2023-06-26T03:11:14.814Z,64.77
2023-06-26T03:12:16.598Z,64.84
2023-06-26T03:13:19.176Z,65.05
2023-06-26T03:14:20.895Z,65.39
2023-06-26T03:15:22.631Z,65.47
2023-06-26T03:16:24.477Z,66.27
2023-06-26T03:17:26.220Z,65.78
2023-06-26T03:18:28.564Z,66.12
2023-06-26T03:19:30.938Z,66.27
2023-06-26T03:20:32.737Z,66.65
2023-06-26T03:21:34.618Z,66.54
2023-06-26T03:22:36.417Z,66.51
2023-06-26T03:23:38.164Z,66.31
2023-06-26T03:24:39.923Z,65.97
2023-06-26T03:25:41.703Z,65.87
2023-06-26T03:26:43.483Z,65.95
2023-06-26T03:27:45.429Z,65.99
2023-06-26T03:28:47.158Z,65.81
2023-06-26T03:29:48.923Z,65.90
2023-06-26T03:30:50.721Z,66.17
2023-06-26T03:31:52.529Z,66.36
2023-06-26T03:32:54.707Z,65.85
2023-06-26T03:33:56.477Z,66.18
2023-06-26T03:34:58.252Z,65.88
2023-06-26T03:36:00.408Z,65.73
2023-06-26T03:37:03.221Z,65.77
2023-06-26T03:38:06.442Z,65.56
2023-06-26T03:39:08.198Z,65.81
2023-06-26T03:40:10.795Z,65.60
2023-06-26T03:41:12.587Z,65.05
2023-06-26T03:42:14.385Z,65.45
2023-06-26T03:43:16.196Z,65.28
2023-06-26T03:44:17.963Z,65.35
2023-06-26T03:45:20.591Z,65.25
2023-06-26T03:46:23.109Z,65.07
2023-06-26T03:47:24.879Z,65.47
2023-06-26T03:48:26.774Z,65.31
2023-06-26T03:49:28.540Z,65.01
2023-06-26T03:50:30.258Z,64.84
2023-06-26T03:51:32.067Z,64.67
2023-06-26T03:52:33.839Z,65.15
2023-06-26T03:53:35.837Z,65.08
2023-06-26T03:54:37.586Z,65.09
2023-06-26T03:55:39.929Z,64.74
2023-06-26T03:56:41.936Z,64.77
2023-06-26T03:57:43.664Z,64.34
2023-06-26T03:58:45.904Z,64.43
2023-06-26T03:59:47.986Z,64.50
2023-06-26T04:00:49.722Z,64.32
2023-06-26T04:01:53.504Z,64.17
2023-06-26T04:02:55.855Z,64.19
2023-06-26T04:03:57.712Z,63.79
2023-06-26T04:04:59.488Z,64.33
2023-06-26T04:06:01.251Z,64.51
2023-06-26T04:07:03.578Z,63.60
2023-06-26T04:08:05.445Z,63.45
2023-06-26T04:09:07.309Z,63.29
2023-06-26T04:10:09.998Z,63.44
2023-06-26T04:11:11.809Z,62.76
2023-06-26T04:12:13.598Z,62.71
2023-06-26T04:13:16.022Z,62.71
2023-06-26T04:14:17.909Z,63.12
2023-06-26T04:15:19.768Z,62.89
2023-06-26T04:16:26.179Z,62.96
2023-06-26T04:17:28.064Z,62.60
2023-06-26T04:18:29.798Z,62.27
2023-06-26T04:19:31.682Z,62.07
2023-06-26T04:20:34.405Z,62.12
2023-06-26T04:21:36.168Z,61.89
2023-06-26T04:22:37.975Z,62.31
2023-06-26T04:23:40.961Z,61.96
2023-06-26T04:24:42.809Z,62.10
2023-06-26T04:25:44.546Z,61.98
2023-06-26T04:26:47.387Z,61.74
2023-06-26T04:27:49.133Z,61.84
2023-06-26T04:28:51.012Z,62.19
2023-06-26T04:29:52.775Z,61.64
2023-06-26T04:30:54.891Z,61.81
2023-06-26T04:31:59.838Z,61.65
2023-06-26T04:33:02.453Z,61.11
2023-06-26T04:34:04.255Z,61.67
2023-06-26T04:35:06.325Z,62.01
2023-06-26T04:36:08.230Z,61.69
2023-06-26T04:37:10.682Z,61.88
2023-06-26T04:38:12.721Z,61.69
2023-06-26T04:39:16.138Z,60.84
2023-06-26T04:40:17.873Z,60.45
2023-06-26T04:41:19.617Z,60.79
2023-06-26T04:42:22.994Z,60.97
2023-06-26T04:43:24.833Z,60.62
2023-06-26T04:44:26.728Z,61.93
2023-06-26T04:45:28.486Z,60.64
2023-06-26T04:46:30.359Z,60.96
2023-06-26T04:47:34.853Z,60.25
2023-06-26T04:48:36.683Z,59.82
2023-06-26T04:49:39.550Z,59.17
2023-06-26T04:50:41.776Z,59.61
2023-06-26T04:51:43.717Z,61.09
2023-06-26T04:52:45.562Z,60.60
2023-06-26T04:53:47.280Z,61.47
2023-06-26T04:54:49.063Z,61.01
2023-06-26T04:55:52.156Z,59.32
2023-06-26T04:56:54.011Z,57.98
2023-06-26T04:57:55.848Z,56.72
2023-06-26T04:58:57.586Z,57.77
2023-06-26T04:59:59.312Z,56.73
2023-06-26T05:01:02.221Z,55.50
2023-06-26T05:02:06.264Z,55.94
2023-06-26T05:03:08.280Z,54.96
2023-06-26T05:04:10.077Z,56.40
2023-06-26T05:05:12.493Z,55.97
2023-06-26T05:06:14.356Z,54.91
2023-06-26T05:07:16.150Z,55.25
2023-06-26T05:08:28.071Z,52.88
2023-06-26T05:09:29.872Z,53.09
2023-06-26T05:10:31.719Z,54.50
2023-06-26T05:11:33.537Z,52.56
2023-06-26T05:12:35.365Z,52.26
2023-06-26T05:13:37.132Z,51.59
2023-06-26T05:14:38.861Z,52.11
2023-06-26T05:15:40.619Z,51.21
2023-06-26T05:16:42.426Z,52.03
2023-06-26T05:17:44.271Z,51.17
2023-06-26T05:18:46.073Z,51.25
2023-06-26T05:19:47.865Z,51.21
2023-06-26T05:20:50.057Z,52.66
2023-06-26T05:21:53.189Z,52.45
2023-06-26T05:22:55.563Z,52.46
2023-06-26T05:23:59.056Z,51.64
2023-06-26T05:25:05.644Z,51.78
2023-06-26T05:26:07.916Z,50.69
2023-06-26T05:27:10.249Z,50.25
2023-06-26T05:28:13.521Z,51.05
2023-06-26T05:29:15.749Z,50.51
2023-06-26T05:30:18.117Z,50.79
2023-06-26T05:31:20.188Z,50.96
2023-06-26T05:32:22.370Z,49.91
2023-06-26T05:33:25.767Z,50.48
2023-06-26T05:34:33.206Z,50.46
2023-06-26T05:35:35.908Z,49.34
2023-06-26T05:36:38.507Z,48.41
2023-06-26T05:37:42.656Z,48.36
2023-06-26T05:38:44.915Z,46.01
2023-06-26T05:39:46.912Z,45.82
2023-06-26T05:40:49.097Z,46.05
2023-06-26T05:41:51.161Z,47.58
2023-06-26T05:42:53.198Z,47.52
2023-06-26T05:43:55.642Z,46.03
2023-06-26T05:44:57.535Z,46.68
2023-06-26T05:45:59.505Z,47.07
2023-06-26T05:47:01.348Z,46.64
2023-06-26T05:48:03.397Z,47.17
2023-06-26T05:49:05.252Z,46.45
2023-06-26T05:50:09.149Z,46.84
2023-06-26T05:51:11.152Z,46.14
2023-06-26T05:52:14.008Z,47.12
2023-06-26T05:53:16.058Z,46.61
2023-06-26T05:54:18.047Z,47.25
2023-06-26T05:55:20.215Z,46.50
2023-06-26T05:56:22.260Z,46.79
2023-06-26T05:57:24.298Z,46.57
2023-06-26T05:58:30.916Z,45.55
2023-06-26T05:59:33.545Z,46.61
2023-06-26T06:00:35.775Z,47.33
2023-06-26T06:01:37.877Z,47.19
2023-06-26T06:02:40.984Z,45.33
2023-06-26T06:03:43.010Z,45.00
2023-06-26T06:04:44.818Z,45.02
2023-06-26T06:05:46.579Z,44.69
2023-06-26T06:06:48.522Z,45.01
2023-06-26T06:07:51.275Z,45.89
2023-06-26T06:08:52.993Z,44.96
2023-06-26T06:09:54.787Z,44.86
2023-06-26T06:10:56.643Z,43.99
2023-06-26T06:11:58.421Z,44.89
2023-06-26T06:13:00.152Z,43.36
2023-06-26T06:14:01.893Z,43.33
2023-06-26T06:15:03.845Z,44.07
2023-06-26T06:16:05.865Z,43.18
2023-06-26T06:17:07.602Z,42.92
2023-06-26T06:18:09.388Z,43.62
2023-06-26T06:19:14.097Z,42.93
2023-06-26T06:20:15.865Z,43.99
2023-06-26T06:21:17.683Z,43.58
2023-06-26T06:22:19.963Z,43.19
2023-06-26T06:23:21.690Z,43.62
2023-06-26T06:24:23.449Z,44.35
2023-06-26T06:25:25.201Z,44.04
2023-06-26T06:26:26.916Z,44.40
2023-06-26T06:27:29.183Z,43.85
2023-06-26T06:28:30.975Z,45.00
2023-06-26T06:29:32.802Z,44.70
2023-06-26T06:30:44.966Z,45.42
2023-06-26T06:31:48.113Z,45.90
2023-06-26T06:32:52.851Z,45.73
2023-06-26T06:33:54.867Z,46.54
2023-06-26T06:34:56.597Z,45.97
2023-06-26T06:35:58.457Z,46.54
2023-06-26T06:37:00.474Z,46.96
2023-06-26T06:38:02.253Z,47.29
2023-06-26T06:39:04.616Z,46.53
2023-06-26T06:40:07.989Z,46.87
2023-06-26T06:41:09.746Z,47.14
2023-06-26T06:42:11.476Z,46.99
2023-06-26T06:43:13.249Z,45.97
2023-06-26T06:44:14.977Z,46.71
2023-06-26T06:45:16.716Z,46.72
2023-06-26T06:46:18.516Z,46.24
2023-06-26T06:47:20.321Z,45.49
2023-06-26T06:48:22.058Z,44.66
2023-06-26T06:49:23.808Z,44.59
2023-06-26T06:50:25.574Z,44.04
2023-06-26T06:51:27.436Z,44.41
2023-06-26T06:52:29.198Z,42.91
2023-06-26T06:53:32.855Z,43.81
2023-06-26T06:54:52.603Z,42.69
2023-06-26T06:55:54.360Z,42.61
2023-06-26T06:56:56.153Z,42.42
2023-06-26T06:57:57.940Z,42.46
2023-06-26T06:58:59.764Z,42.81
2023-06-26T07:00:01.484Z,43.56
2023-06-26T07:01:04.297Z,44.20
2023-06-26T07:02:06.124Z,43.64
2023-06-26T07:03:11.738Z,43.99
2023-06-26T07:04:13.569Z,43.64
2023-06-26T07:05:15.369Z,44.32
2023-06-26T07:06:17.105Z,44.55
2023-06-26T07:07:20.460Z,44.31
2023-06-26T07:08:22.278Z,44.43
2023-06-26T07:09:24.025Z,45.37
2023-06-26T07:10:25.867Z,44.61
2023-06-26T07:11:27.652Z,45.25
2023-06-26T07:12:29.908Z,45.52
2023-06-26T07:13:31.698Z,44.76
2023-06-26T07:14:33.531Z,45.45
2023-06-26T07:15:35.424Z,46.54
2023-06-26T07:16:37.196Z,46.08
2023-06-26T07:17:40.063Z,45.60
2023-06-26T07:18:42.076Z,46.25
2023-06-26T07:19:43.859Z,45.94
2023-06-26T07:20:45.619Z,44.15
2023-06-26T07:21:48.307Z,44.33
2023-06-26T07:22:50.074Z,44.03
2023-06-26T07:23:51.866Z,45.44
2023-06-26T07:24:53.913Z,45.72
2023-06-26T07:25:55.691Z,45.71
2023-06-26T07:26:57.423Z,44.16
2023-06-26T07:27:59.256Z,43.04
2023-06-26T07:29:00.986Z,43.05
2023-06-26T07:30:03.028Z,42.17
2023-06-26T07:31:04.786Z,41.93
2023-06-26T07:32:06.779Z,42.05
2023-06-26T07:33:08.532Z,43.33
2023-06-26T07:34:10.273Z,42.95
2023-06-26T07:35:12.085Z,42.05
2023-06-26T07:36:13.875Z,41.67
2023-06-26T07:37:15.684Z,42.13
2023-06-26T07:38:17.432Z,40.41
2023-06-26T07:39:23.443Z,40.27
2023-06-26T07:40:26.643Z,40.97
2023-06-26T07:41:30.522Z,41.42
2023-06-26T07:42:32.307Z,42.32
2023-06-26T07:43:34.128Z,42.72
2023-06-26T07:44:35.879Z,41.87
2023-06-26T07:45:37.631Z,42.51
2023-06-26T07:46:40.482Z,41.73
2023-06-26T07:47:42.467Z,40.62
2023-06-26T07:48:44.282Z,40.64
2023-06-26T07:49:46.178Z,40.23
2023-06-26T07:50:47.943Z,40.29
2023-06-26T07:51:49.729Z,40.21
2023-06-26T07:52:53.267Z,39.78
2023-06-26T07:53:55.024Z,40.38
2023-06-26T07:54:57.272Z,40.81
2023-06-26T07:55:59.090Z,40.48
2023-06-26T07:57:03.215Z,41.10
2023-06-26T07:58:05.047Z,41.10
2023-06-26T07:59:06.814Z,41.33
2023-06-26T08:00:09.177Z,41.69
2023-06-26T08:01:11.007Z,42.13
2023-06-26T08:02:12.763Z,42.66
2023-06-26T08:03:25.392Z,42.47
2023-06-26T08:04:36.037Z,41.88
2023-06-26T08:05:38.017Z,41.53
2023-06-26T08:06:41.472Z,40.63
2023-06-26T08:07:43.285Z,39.35
2023-06-26T08:08:45.047Z,39.16
2023-06-26T08:09:46.918Z,38.09
2023-06-26T08:10:48.641Z,37.56
2023-06-26T08:11:50.828Z,36.89
2023-06-26T08:12:53.896Z,36.83
2023-06-26T08:13:55.846Z,37.24
2023-06-26T08:14:57.624Z,37.57
2023-06-26T08:15:59.399Z,37.04
2023-06-26T08:17:01.205Z,36.28
2023-06-26T08:18:03.010Z,37.02
2023-06-26T08:19:04.762Z,38.01
2023-06-26T08:20:09.301Z,37.78
2023-06-26T08:21:11.890Z,38.04
2023-06-26T08:22:14.122Z,37.00
2023-06-26T08:23:15.881Z,37.44
2023-06-26T08:24:19.590Z,37.45
2023-06-26T08:25:21.891Z,37.92
2023-06-26T08:26:23.676Z,37.80
2023-06-26T08:27:26.739Z,38.11
2023-06-26T08:28:28.506Z,38.27
2023-06-26T08:29:30.403Z,38.42
2023-06-26T08:30:33.584Z,38.93
2023-06-26T08:31:35.984Z,39.37
2023-06-26T08:32:38.000Z,39.93
2023-06-26T08:33:39.813Z,39.95
2023-06-26T08:34:41.525Z,39.19
2023-06-26T08:35:44.061Z,39.20
2023-06-26T08:36:46.157Z,39.12
2023-06-26T08:37:48.080Z,39.01
2023-06-26T08:38:49.823Z,38.99
2023-06-26T08:39:51.792Z,39.02
2023-06-26T08:40:53.575Z,39.63
2023-06-26T08:41:55.546Z,39.86
2023-06-26T08:42:57.519Z,39.54
2023-06-26T08:43:59.396Z,38.86
2023-06-26T08:45:02.460Z,39.42
2023-06-26T08:46:05.040Z,39.70
2023-06-26T08:47:06.929Z,39.40
2023-06-26T08:48:09.719Z,38.42
2023-06-26T08:49:43.831Z,39.51
2023-06-26T08:50:48.110Z,40.22
2023-06-26T08:51:57.533Z,40.21
2023-06-26T08:53:03.301Z,40.23
2023-06-26T08:54:10.259Z,39.24
2023-06-26T08:55:13.959Z,39.70
2023-06-26T08:56:18.968Z,40.37
2023-06-26T08:57:22.374Z,39.92
2023-06-26T08:58:24.453Z,40.18
2023-06-26T08:59:26.487Z,40.90
2023-06-26T09:00:28.654Z,41.85
2023-06-26T09:01:31.779Z,42.12
2023-06-26T09:02:33.961Z,42.13
2023-06-26T09:03:36.806Z,42.52
2023-06-26T09:04:39.902Z,42.54
2023-06-26T09:05:41.680Z,42.81
2023-06-26T09:06:43.626Z,42.32
2023-06-26T09:07:46.312Z,43.09
2023-06-26T09:08:48.318Z,43.21
2023-06-26T09:09:50.190Z,43.39
2023-06-26T09:10:53.114Z,43.56
2023-06-26T09:11:56.484Z,44.95
2023-06-26T09:12:59.243Z,45.23
2023-06-26T09:14:01.581Z,44.51
2023-06-26T09:15:04.627Z,44.03
2023-06-26T09:16:09.864Z,44.71
2023-06-26T09:17:11.673Z,44.30
2023-06-26T09:18:19.393Z,44.06
2023-06-26T09:19:21.197Z,44.53
2023-06-26T09:20:22.930Z,44.76
2023-06-26T09:21:25.720Z,44.84
2023-06-26T09:22:27.828Z,45.21
2023-06-26T09:23:29.643Z,46.16
2023-06-26T09:24:32.635Z,46.61
2023-06-26T09:25:35.010Z,46.84
2023-06-26T09:26:41.139Z,46.56
2023-06-26T09:27:45.117Z,46.51
2023-06-26T09:28:47.815Z,46.32
2023-06-26T09:29:49.936Z,46.68
2023-06-26T09:30:53.459Z,44.98
2023-06-26T09:31:57.277Z,45.10
2023-06-26T09:32:59.451Z,43.54
2023-06-26T09:34:01.996Z,43.48
2023-06-26T09:35:05.278Z,44.16
2023-06-26T09:36:08.317Z,43.24
2023-06-26T09:37:13.360Z,45.70
2023-06-26T09:38:16.083Z,46.33
2023-06-26T09:39:17.847Z,46.21
2023-06-26T09:40:19.790Z,48.12
2023-06-26T09:41:22.077Z,45.38
2023-06-26T09:42:24.964Z,45.46
2023-06-26T09:43:27.214Z,45.32
2023-06-26T09:44:32.277Z,45.34
2023-06-26T09:45:34.984Z,44.00
2023-06-26T09:46:36.984Z,44.94
2023-06-26T09:47:38.986Z,45.47
2023-06-26T09:48:41.970Z,46.43
2023-06-26T09:49:44.275Z,43.03
2023-06-26T09:51:01.244Z,42.42
2023-06-26T09:52:10.978Z,45.68
2023-06-26T09:53:16.577Z,41.42
2023-06-26T09:54:21.273Z,41.12
2023-06-26T09:55:23.883Z,45.27
2023-06-26T09:56:26.064Z,48.17
2023-06-26T09:57:28.634Z,49.16
2023-06-26T09:58:30.993Z,48.88
2023-06-26T09:59:32.787Z,49.77
2023-06-26T10:00:34.748Z,51.46
2023-06-26T10:01:43.401Z,50.97
2023-06-26T10:02:45.674Z,52.30
2023-06-26T10:03:47.684Z,52.92
2023-06-26T10:04:49.436Z,54.54
2023-06-26T10:05:51.765Z,53.76
2023-06-26T10:06:57.226Z,53.33
2023-06-26T10:08:00.226Z,54.33
2023-06-26T10:09:06.484Z,56.48
2023-06-26T10:10:09.983Z,55.98
2023-06-26T10:11:17.358Z,55.53
2023-06-26T10:12:25.908Z,56.86
2023-06-26T10:13:36.176Z,57.52
2023-06-26T10:14:45.644Z,58.47
2023-06-26T10:15:51.399Z,57.61
2023-06-26T10:16:53.839Z,58.23
2023-06-26T10:17:58.391Z,58.36
2023-06-26T10:19:07.938Z,60.30
2023-06-26T10:20:13.486Z,61.29
2023-06-26T10:21:16.168Z,62.26
2023-06-26T10:22:19.183Z,60.58
2023-06-26T10:23:21.825Z,62.39
2023-06-26T10:24:32.654Z,63.63
2023-06-26T10:25:42.038Z,64.18
2023-06-26T10:26:46.857Z,62.78
2023-06-26T10:27:58.615Z,61.52
2023-06-26T10:29:01.281Z,61.77
2023-06-26T10:30:07.989Z,64.31
2023-06-26T10:31:12.759Z,57.64
2023-06-26T10:32:15.282Z,61.35
2023-06-26T10:33:17.917Z,62.91
2023-06-26T10:34:21.876Z,63.71
2023-06-26T10:35:25.717Z,64.22
2023-06-26T10:36:32.952Z,65.81
2023-06-26T10:37:49.563Z,64.42
2023-06-26T10:38:58.963Z,65.88
2023-06-26T10:40:01.645Z,64.91
2023-06-26T10:41:13.183Z,65.88
2023-06-26T10:42:17.477Z,69.25
2023-06-26T10:43:19.938Z,64.87
2023-06-26T10:44:22.290Z,64.06
2023-06-26T10:45:29.231Z,64.48
2023-06-26T10:46:34.840Z,63.15
2023-06-26T10:47:38.352Z,61.09
2023-06-26T10:49:02.949Z,66.17
2023-06-26T10:50:34.338Z,68.94
2023-06-26T10:51:37.367Z,66.45
2023-06-26T10:52:39.341Z,65.65
2023-06-26T10:53:41.513Z,59.11
2023-06-26T10:54:43.821Z,58.19
2023-06-26T10:55:51.656Z,60.15
2023-06-26T10:56:57.843Z,63.86
2023-06-26T10:57:59.696Z,62.35
2023-06-26T10:59:14.929Z,56.53
2023-06-26T11:00:18.658Z,57.21
2023-06-26T11:01:25.338Z,51.75
2023-06-26T11:02:28.936Z,51.05
2023-06-26T11:03:32.460Z,53.45
2023-06-26T11:04:49.133Z,50.39
2023-06-26T11:06:11.556Z,52.17
2023-06-26T11:07:21.927Z,50.88
2023-06-26T11:08:55.163Z,49.59
2023-06-26T11:10:02.547Z,53.12
2023-06-26T11:11:04.267Z,52.98
2023-06-26T11:12:06.461Z,52.75
2023-06-26T11:13:08.390Z,49.92
2023-06-26T11:14:10.657Z,49.34
2023-06-26T11:15:17.115Z,51.68
2023-06-26T11:16:18.873Z,43.38
2023-06-26T11:17:20.828Z,47.67
2023-06-26T11:18:22.675Z,46.03
2023-06-26T11:19:27.603Z,48.74
2023-06-26T11:20:29.293Z,45.73
2023-06-26T11:21:31.522Z,42.85
2023-06-26T11:22:37.610Z,38.93
2023-06-26T11:23:40.454Z,38.81
2023-06-26T11:24:44.341Z,42.16
2023-06-26T11:25:46.117Z,39.46
2023-06-26T11:26:48.116Z,40.32
2023-06-26T11:27:50.808Z,39.59
2023-06-26T11:28:56.184Z,35.95
2023-06-26T11:29:57.885Z,36.16
2023-06-26T11:30:59.862Z,34.30
2023-06-26T11:32:05.647Z,37.16
2023-06-26T11:33:10.136Z,35.60
2023-06-26T11:34:14.167Z,37.64
2023-06-26T11:35:31.284Z,33.81
2023-06-26T11:36:33.657Z,35.54
2023-06-26T11:37:35.538Z,36.80
2023-06-26T11:38:40.108Z,37.45
2023-06-26T11:39:41.818Z,36.57
2023-06-26T11:40:43.757Z,36.58
2023-06-26T11:41:49.089Z,35.88
2023-06-26T11:42:50.876Z,37.14
2023-06-26T11:43:53.860Z,35.90
2023-06-26T11:44:56.261Z,35.67
2023-06-26T11:45:58.093Z,36.78
2023-06-26T11:47:03.037Z,36.42
2023-06-26T11:48:05.090Z,38.32
2023-06-26T11:49:08.105Z,36.75
2023-06-26T11:50:17.547Z,39.21
2023-06-26T11:51:19.517Z,37.94
2023-06-26T11:52:21.260Z,36.96
2023-06-26T11:53:22.971Z,37.10
2023-06-26T11:54:26.514Z,38.78
2023-06-26T11:55:28.259Z,40.09
2023-06-26T11:56:30.304Z,38.79
2023-06-26T11:57:32.988Z,40.87
2023-06-26T11:58:34.676Z,42.60
2023-06-26T11:59:38.070Z,42.20
2023-06-26T12:00:44.264Z,41.07
2023-06-26T12:01:46.613Z,40.50
2023-06-26T12:02:48.882Z,41.01
2023-06-26T12:03:52.091Z,39.24
2023-06-26T12:04:54.070Z,41.71
2023-06-26T12:05:56.510Z,41.08
2023-06-26T12:06:58.719Z,40.57
2023-06-26T12:08:01.079Z,39.81
2023-06-26T12:09:06.354Z,38.37
2023-06-26T12:10:08.708Z,39.00
2023-06-26T12:11:11.341Z,39.42
2023-06-26T12:12:16.059Z,39.34
2023-06-26T12:13:17.872Z,38.64
2023-06-26T12:14:22.970Z,38.96
2023-06-26T12:15:24.774Z,40.88
2023-06-26T12:16:26.803Z,41.57
2023-06-26T12:17:28.691Z,41.98
2023-06-26T12:18:37.158Z,41.96
2023-06-26T12:19:49.545Z,41.71
2023-06-26T12:20:51.253Z,41.01
2023-06-26T12:21:53.548Z,41.75
2023-06-26T12:22:55.240Z,42.40
2023-06-26T12:24:03.056Z,42.62
2023-06-26T12:25:08.680Z,44.01
2023-06-26T12:26:23.019Z,45.75
2023-06-26T12:27:24.844Z,46.80
2023-06-26T12:28:26.859Z,47.25
2023-06-26T12:29:36.703Z,48.66
2023-06-26T12:30:38.829Z,50.73
2023-06-26T12:31:43.138Z,52.78
2023-06-26T12:32:49.054Z,53.75
2023-06-26T12:33:53.980Z,53.91
2023-06-26T12:34:58.129Z,56.39
2023-06-26T12:35:59.884Z,55.43
2023-06-26T12:37:19.859Z,56.30
2023-06-26T12:38:22.878Z,56.60
2023-06-26T12:39:25.862Z,56.68
2023-06-26T12:40:27.672Z,57.13
2023-06-26T12:41:29.388Z,58.25
2023-06-26T12:42:34.587Z,58.75
2023-06-26T12:43:39.994Z,58.23
2023-06-26T12:44:41.745Z,59.79
2023-06-26T12:45:43.528Z,56.64
2023-06-26T12:46:47.625Z,57.73
2023-06-26T12:47:49.986Z,58.20
2023-06-26T12:48:55.976Z,57.16
2023-06-26T12:49:58.969Z,56.35
2023-06-26T12:51:01.038Z,56.46
2023-06-26T12:52:05.283Z,56.23
2023-06-26T12:53:07.079Z,56.65
2023-06-26T12:54:11.978Z,56.99
2023-06-26T12:55:13.748Z,58.07
2023-06-26T12:56:17.323Z,56.95
2023-06-26T12:57:19.177Z,53.94
2023-06-26T12:58:21.065Z,53.37
2023-06-26T12:59:23.418Z,54.04
2023-06-26T13:00:26.623Z,54.71
2023-06-26T13:01:29.370Z,55.00
2023-06-26T13:02:31.473Z,52.81
2023-06-26T13:03:34.818Z,52.87
2023-06-26T13:04:37.258Z,56.07
2023-06-26T13:05:39.016Z,53.01
2023-06-26T13:06:40.795Z,52.10
2023-06-26T13:07:42.547Z,48.77
2023-06-26T13:08:44.726Z,48.70
2023-06-26T13:09:47.354Z,48.23
2023-06-26T13:10:49.300Z,50.85
2023-06-26T13:11:51.115Z,51.86
2023-06-26T13:12:52.819Z,52.44
2023-06-26T13:14:09.163Z,52.51
2023-06-26T13:15:12.707Z,53.65
2023-06-26T13:16:14.748Z,52.68
2023-06-26T13:17:16.505Z,52.31
2023-06-26T13:18:18.288Z,52.37
2023-06-26T13:19:20.036Z,54.45
2023-06-26T13:20:21.838Z,52.99
2023-06-26T13:21:23.850Z,53.98
2023-06-26T13:22:25.612Z,52.30
2023-06-26T13:23:27.392Z,52.35
2023-06-26T13:24:29.207Z,52.64
2023-06-26T13:25:31.246Z,52.88
2023-06-26T13:26:37.877Z,53.94
2023-06-26T13:27:40.121Z,55.16
2023-06-26T13:28:43.026Z,53.75
2023-06-26T13:29:44.813Z,55.68
2023-06-26T13:30:46.599Z,54.45
2023-06-26T13:31:48.417Z,55.25
2023-06-26T13:32:50.211Z,57.03
2023-06-26T13:33:54.668Z,57.99
2023-06-26T13:34:56.499Z,58.02
2023-06-26T13:35:58.449Z,58.25